createdAt,value
2018-04-13T00:00:06.624Z,997.53
2018-04-13T00:01:06.642Z,997.53
2018-04-13T00:02:06.656Z,997.53
2018-04-13T00:03:06.674Z,997.53
2018-04-13T00:04:06.689Z,997.53
2018-04-13T00:05:06.707Z,997.55
2018-04-13T00:06:06.721Z,997.56
2018-04-13T00:07:06.737Z,997.56
2018-04-13T00:08:06.752Z,997.55
2018-04-13T00:09:06.768Z,997.54
2018-04-13T00:10:06.789Z,997.56
2018-04-13T00:11:06.805Z,997.56
2018-04-13T00:12:06.816Z,997.57
2018-04-13T00:13:06.833Z,997.58
2018-04-13T00:14:06.856Z,997.61
2018-04-13T00:15:06.867Z,997.57
2018-04-13T00:16:06.884Z,997.63
2018-04-13T00:17:06.900Z,997.62
2018-04-13T00:18:06.914Z,997.64
2018-04-13T00:19:06.931Z,997.65
2018-04-13T00:20:06.947Z,997.64
2018-04-13T00:21:06.967Z,997.65
2018-04-13T00:22:06.980Z,997.70
2018-04-13T00:23:06.997Z,997.71
2018-04-13T00:24:07.013Z,997.72
2018-04-13T00:25:07.031Z,997.74
2018-04-13T00:26:07.046Z,997.77
2018-04-13T00:27:07.062Z,997.75
2018-04-13T00:28:07.078Z,997.74
2018-04-13T00:29:07.096Z,997.74
2018-04-13T00:30:07.112Z,997.71
2018-04-13T00:31:07.127Z,997.67
2018-04-13T00:32:07.150Z,997.64
2018-04-13T00:33:07.160Z,997.63
2018-04-13T00:34:07.177Z,997.62
2018-04-13T00:35:07.194Z,997.61
2018-04-13T00:36:07.209Z,997.60
2018-04-13T00:37:07.225Z,997.62
2018-04-13T00:38:07.242Z,997.61
2018-04-13T00:39:07.260Z,997.58
2018-04-13T00:40:07.277Z,997.56
2018-04-13T00:41:07.290Z,997.58
2018-04-13T00:42:07.310Z,997.58
2018-04-13T00:43:07.321Z,997.56
2018-04-13T00:44:07.340Z,997.57
2018-04-13T00:45:07.355Z,997.62
2018-04-13T00:46:07.371Z,997.59
2018-04-13T00:47:07.387Z,997.57
2018-04-13T00:48:07.405Z,997.57
2018-04-13T00:49:07.419Z,997.58
2018-04-13T00:50:07.437Z,997.60
2018-04-13T00:51:07.452Z,997.58
2018-04-13T00:52:07.470Z,997.66
2018-04-13T00:53:07.484Z,997.65
2018-04-13T00:54:07.502Z,997.70
2018-04-13T00:55:07.520Z,997.68
2018-04-13T00:56:07.554Z,997.69
2018-04-13T00:57:07.547Z,997.67
2018-04-13T00:58:07.566Z,997.66
2018-04-13T00:59:07.583Z,997.73
2018-04-13T01:00:07.601Z,997.68
2018-04-13T01:01:07.614Z,997.72
2018-04-13T01:02:07.629Z,997.67
2018-04-13T01:03:07.647Z,997.71
2018-04-13T01:04:07.665Z,997.71
2018-04-13T01:05:07.677Z,997.70
2018-04-13T01:06:07.695Z,997.70
2018-04-13T01:07:07.724Z,997.73
2018-04-13T01:08:07.728Z,997.73
2018-04-13T01:09:07.746Z,997.68
2018-04-13T01:10:07.759Z,997.71
2018-04-13T01:11:07.779Z,997.67
2018-04-13T01:12:07.794Z,997.68
2018-04-13T01:13:07.807Z,997.67
2018-04-13T01:14:07.824Z,997.67
2018-04-13T01:15:07.841Z,997.66
2018-04-13T01:16:07.864Z,997.68
2018-04-13T01:17:07.879Z,997.68
2018-04-13T01:18:07.889Z,997.67
2018-04-13T01:19:07.908Z,997.69
2018-04-13T01:20:07.922Z,997.66
2018-04-13T01:21:07.936Z,997.71
2018-04-13T01:22:07.952Z,997.69
2018-04-13T01:23:07.969Z,997.73
2018-04-13T01:24:07.988Z,997.70
2018-04-13T01:25:08.007Z,997.71
2018-04-13T01:26:08.023Z,997.69
2018-04-13T01:27:08.037Z,997.69
2018-04-13T01:28:08.053Z,997.70
2018-04-13T01:29:08.068Z,997.69
2018-04-13T01:30:08.084Z,997.64
2018-04-13T01:31:08.100Z,997.63
2018-04-13T01:32:08.116Z,997.59
2018-04-13T01:33:08.138Z,997.64
2018-04-13T01:34:08.148Z,997.67
2018-04-13T01:35:08.168Z,997.73
2018-04-13T01:36:08.181Z,997.74
2018-04-13T01:37:08.198Z,997.71
2018-04-13T01:38:08.221Z,997.71
2018-04-13T01:39:08.231Z,997.73
2018-04-13T01:40:08.246Z,997.75
2018-04-13T01:41:08.263Z,997.75
2018-04-13T01:42:08.277Z,997.77
2018-04-13T01:43:08.294Z,997.76
2018-04-13T01:44:08.312Z,997.78
2018-04-13T01:45:08.326Z,997.77
2018-04-13T01:46:08.340Z,997.78
2018-04-13T01:47:08.360Z,997.79
2018-04-13T01:48:08.374Z,997.79
2018-04-13T01:49:08.389Z,997.81
2018-04-13T01:50:08.406Z,997.81
2018-04-13T01:51:08.429Z,997.81
2018-04-13T01:52:08.440Z,997.80
2018-04-13T01:53:08.454Z,997.83
2018-04-13T01:54:08.469Z,997.86
2018-04-13T01:55:08.487Z,997.84
2018-04-13T01:56:08.502Z,997.87
2018-04-13T01:57:08.518Z,997.87
2018-04-13T01:58:08.540Z,997.84
2018-04-13T01:59:08.555Z,997.88
2018-04-13T02:00:08.568Z,997.87
2018-04-13T02:01:08.585Z,997.88
2018-04-13T02:02:08.601Z,997.88
2018-04-13T02:03:08.619Z,997.86
2018-04-13T02:04:08.652Z,997.92
2018-04-13T02:05:08.675Z,997.89
2018-04-13T02:06:08.663Z,997.89
2018-04-13T02:07:08.679Z,997.90
2018-04-13T02:08:08.699Z,997.88
2018-04-13T02:09:08.711Z,997.90
2018-04-13T02:10:08.726Z,997.89
2018-04-13T02:11:08.742Z,997.89
2018-04-13T02:12:08.760Z,997.92
2018-04-13T02:13:08.779Z,997.88
2018-04-13T02:14:08.790Z,997.90
2018-04-13T02:15:08.808Z,997.89
2018-04-13T02:16:08.825Z,997.94
2018-04-13T02:17:08.839Z,997.98
2018-04-13T02:18:08.860Z,997.96
2018-04-13T02:19:08.870Z,997.92
2018-04-13T02:20:08.889Z,997.93
2018-04-13T02:21:08.903Z,997.95
2018-04-13T02:22:08.918Z,997.98
2018-04-13T02:23:08.935Z,998.03
2018-04-13T02:24:08.952Z,998.00
2018-04-13T02:25:08.966Z,998.05
2018-04-13T02:26:08.983Z,998.05
2018-04-13T02:27:08.999Z,998.04
2018-04-13T02:28:09.019Z,998.03
2018-04-13T02:29:09.031Z,998.08
2018-04-13T02:30:09.060Z,998.02
2018-04-13T02:31:09.434Z,998.08
2018-04-13T02:32:09.079Z,998.09
2018-04-13T02:33:09.096Z,998.12
2018-04-13T02:34:09.109Z,998.09
2018-04-13T02:35:09.126Z,998.08
2018-04-13T02:36:09.144Z,998.08
2018-04-13T02:37:09.160Z,998.06
2018-04-13T02:38:09.172Z,998.04
2018-04-13T02:39:09.190Z,998.01
2018-04-13T02:40:09.209Z,998.00
2018-04-13T02:41:09.222Z,998.03
2018-04-13T02:42:09.238Z,997.98
2018-04-13T02:43:09.254Z,998.04
2018-04-13T02:44:09.268Z,998.04
2018-04-13T02:45:09.286Z,998.05
2018-04-13T02:46:09.302Z,998.07
2018-04-13T02:47:09.319Z,998.07
2018-04-13T02:48:09.336Z,998.04
2018-04-13T02:49:09.349Z,998.04
2018-04-13T02:50:09.364Z,998.10
2018-04-13T02:51:09.380Z,998.07
2018-04-13T02:52:09.395Z,998.07
2018-04-13T02:53:09.418Z,998.09
2018-04-13T02:54:09.427Z,998.12
2018-04-13T02:55:09.443Z,998.16
2018-04-13T02:56:09.458Z,998.14
2018-04-13T02:57:09.474Z,998.22
2018-04-13T02:58:09.490Z,998.21
2018-04-13T02:59:09.506Z,998.20
2018-04-13T03:00:09.522Z,998.26
2018-04-13T03:01:09.537Z,998.26
2018-04-13T03:02:09.553Z,998.26
2018-04-13T03:03:09.571Z,998.29
2018-04-13T03:04:09.585Z,998.31
2018-04-13T03:05:09.600Z,998.29
2018-04-13T03:06:09.617Z,998.34
2018-04-13T03:07:09.633Z,998.36
2018-04-13T03:08:09.647Z,998.34
2018-04-13T03:09:09.663Z,998.34
2018-04-13T03:10:09.680Z,998.36
2018-04-13T03:11:09.697Z,998.34
2018-04-13T03:12:09.713Z,998.35
2018-04-13T03:13:09.730Z,998.39
2018-04-13T03:14:09.744Z,998.41
2018-04-13T03:15:09.762Z,998.45
2018-04-13T03:16:09.776Z,998.39
2018-04-13T03:17:09.792Z,998.42
2018-04-13T03:18:09.809Z,998.44
2018-04-13T03:19:09.826Z,998.46
2018-04-13T03:20:09.839Z,998.47
2018-04-13T03:21:09.858Z,998.45
2018-04-13T03:22:09.883Z,998.46
2018-04-13T03:23:09.987Z,998.48
2018-04-13T03:24:09.905Z,998.48
2018-04-13T03:25:09.917Z,998.49
2018-04-13T03:26:09.932Z,998.49
2018-04-13T03:27:09.951Z,998.53
2018-04-13T03:28:09.966Z,998.52
2018-04-13T03:29:09.981Z,998.58
2018-04-13T03:30:09.997Z,998.57
2018-04-13T03:31:10.027Z,998.59
2018-04-13T03:32:10.029Z,998.63
2018-04-13T03:33:10.049Z,998.64
2018-04-13T03:34:10.061Z,998.64
2018-04-13T03:35:10.074Z,998.62
2018-04-13T03:36:10.092Z,998.64
2018-04-13T03:37:10.700Z,998.60
2018-04-13T03:38:10.368Z,998.62
2018-04-13T03:39:10.238Z,998.63
2018-04-13T03:40:10.159Z,998.65
2018-04-13T03:41:10.168Z,998.63
2018-04-13T03:42:10.242Z,998.61
2018-04-13T03:43:10.199Z,998.63
2018-04-13T03:44:10.218Z,998.59
2018-04-13T03:45:10.228Z,998.61
2018-04-13T03:46:10.240Z,998.62
2018-04-13T03:47:10.307Z,998.62
2018-04-13T03:48:10.272Z,998.57
2018-04-13T03:49:10.287Z,998.58
2018-04-13T03:50:10.308Z,998.61
2018-04-13T03:51:10.335Z,998.58
2018-04-13T03:52:10.335Z,998.61
2018-04-13T03:53:10.350Z,998.64
2018-04-13T03:54:10.367Z,998.59
2018-04-13T03:55:10.385Z,998.65
2018-04-13T03:56:10.398Z,998.68
2018-04-13T03:57:10.412Z,998.67
2018-04-13T03:58:10.429Z,998.74
2018-04-13T03:59:10.443Z,998.74
2018-04-13T04:00:10.459Z,998.76
2018-04-13T04:01:10.473Z,998.78
2018-04-13T04:02:10.541Z,998.79
2018-04-13T04:03:10.506Z,998.79
2018-04-13T04:04:10.523Z,998.80
2018-04-13T04:05:10.538Z,998.74
2018-04-13T04:06:10.558Z,998.80
2018-04-13T04:07:10.569Z,998.77
2018-04-13T04:08:10.588Z,998.81
2018-04-13T04:09:10.607Z,998.79
2018-04-13T04:10:10.621Z,998.83
2018-04-13T04:11:10.640Z,998.84
2018-04-13T04:12:10.648Z,998.87
2018-04-13T04:13:10.665Z,998.92
2018-04-13T04:14:10.679Z,998.92
2018-04-13T04:15:10.698Z,998.94
2018-04-13T04:16:10.710Z,998.95
2018-04-13T04:17:10.725Z,998.97
2018-04-13T04:18:10.740Z,998.96
2018-04-13T04:19:10.758Z,998.93
2018-04-13T04:20:10.778Z,999.00
2018-04-13T04:21:10.789Z,998.95
2018-04-13T04:22:10.805Z,998.95
2018-04-13T04:23:10.825Z,998.95
2018-04-13T04:24:10.880Z,998.95
2018-04-13T04:25:10.856Z,998.97
2018-04-13T04:26:10.867Z,998.94
2018-04-13T04:27:10.882Z,998.93
2018-04-13T04:28:10.902Z,998.93
2018-04-13T04:29:10.914Z,998.93
2018-04-13T04:30:10.928Z,998.95
2018-04-13T04:31:10.949Z,998.93
2018-04-13T04:32:10.962Z,998.93
2018-04-13T04:33:10.977Z,998.93
2018-04-13T04:34:10.993Z,998.95
2018-04-13T04:35:11.007Z,998.93
2018-04-13T04:36:11.028Z,998.94
2018-04-13T04:37:11.041Z,998.90
2018-04-13T04:38:11.054Z,998.86
2018-04-13T04:39:11.070Z,998.83
2018-04-13T04:40:11.086Z,998.84
2018-04-13T04:41:11.101Z,998.79
2018-04-13T04:42:11.121Z,998.78
2018-04-13T04:43:11.133Z,998.80
2018-04-13T04:44:11.148Z,998.83
2018-04-13T04:45:11.162Z,998.87
2018-04-13T04:46:11.184Z,998.90
2018-04-13T04:47:11.202Z,998.92
2018-04-13T04:48:11.213Z,998.90
2018-04-13T04:49:11.233Z,998.95
2018-04-13T04:50:11.242Z,998.95
2018-04-13T04:51:11.258Z,998.95
2018-04-13T04:52:11.276Z,998.97
2018-04-13T04:53:11.294Z,998.98
2018-04-13T04:54:11.309Z,998.95
2018-04-13T04:55:11.322Z,998.97
2018-04-13T04:56:11.339Z,998.97
2018-04-13T04:57:11.353Z,999.01
2018-04-13T04:58:11.370Z,998.99
2018-04-13T04:59:11.390Z,998.99
2018-04-13T05:00:11.403Z,999.00
2018-04-13T05:01:11.416Z,998.95
2018-04-13T05:02:11.438Z,998.95
2018-04-13T05:03:11.454Z,998.98
2018-04-13T05:04:11.464Z,999.00
2018-04-13T05:05:11.477Z,999.08
2018-04-13T05:06:11.503Z,999.04
2018-04-13T05:07:11.509Z,999.08
2018-04-13T05:08:11.526Z,999.10
2018-04-13T05:09:11.540Z,999.15
2018-04-13T05:10:11.557Z,999.15
2018-04-13T05:11:11.586Z,999.12
2018-04-13T05:12:11.590Z,999.12
2018-04-13T05:13:11.610Z,999.15
2018-04-13T05:14:11.622Z,999.17
2018-04-13T05:15:11.637Z,999.20
2018-04-13T05:16:11.656Z,999.17
2018-04-13T05:17:11.680Z,999.23
2018-04-13T05:18:11.690Z,999.22
2018-04-13T05:19:11.702Z,999.27
2018-04-13T05:20:11.716Z,999.30
2018-04-13T05:21:11.787Z,999.34
2018-04-13T05:22:11.755Z,999.35
2018-04-13T05:23:11.777Z,999.33
2018-04-13T05:24:11.798Z,999.34
2018-04-13T05:25:11.795Z,999.34
2018-04-13T05:26:11.810Z,999.32
2018-04-13T05:27:11.826Z,999.36
2018-04-13T05:28:11.843Z,999.31
2018-04-13T05:29:11.883Z,999.33
2018-04-13T05:30:11.876Z,999.33
2018-04-13T05:31:11.891Z,999.36
2018-04-13T05:32:11.906Z,999.33
2018-04-13T05:33:11.925Z,999.31
2018-04-13T05:34:11.937Z,999.32
2018-04-13T05:35:12.044Z,999.30
2018-04-13T05:36:11.973Z,999.31
2018-04-13T05:37:11.984Z,999.29
2018-04-13T05:38:12.001Z,999.32
2018-04-13T05:39:12.018Z,999.32
2018-04-13T05:40:12.033Z,999.32
2018-04-13T05:41:12.048Z,999.35
2018-04-13T05:42:12.070Z,999.39
2018-04-13T05:43:12.085Z,999.37
2018-04-13T05:44:12.097Z,999.41
2018-04-13T05:45:12.110Z,999.45
2018-04-13T05:46:12.127Z,999.50
2018-04-13T05:47:12.144Z,999.52
2018-04-13T05:48:12.160Z,999.54
2018-04-13T05:49:12.181Z,999.59
2018-04-13T05:50:12.190Z,999.60
2018-04-13T05:51:12.208Z,999.64
2018-04-13T05:52:12.222Z,999.65
2018-04-13T05:53:12.237Z,999.62
2018-04-13T05:54:12.253Z,999.57
2018-04-13T05:55:12.269Z,999.55
2018-04-13T05:56:12.285Z,999.54
2018-04-13T05:57:12.304Z,999.50
2018-04-13T05:58:12.317Z,999.48
2018-04-13T05:59:12.344Z,999.48
2018-04-13T06:00:12.371Z,999.46
2018-04-13T06:01:12.364Z,999.45
2018-04-13T06:02:12.380Z,999.43
2018-04-13T06:03:12.396Z,999.44
2018-04-13T06:04:12.413Z,999.45
2018-04-13T06:05:12.427Z,999.44
2018-04-13T06:06:12.444Z,999.44
2018-04-13T06:07:12.460Z,999.42
2018-04-13T06:08:12.475Z,999.39
2018-04-13T06:09:12.490Z,999.37
2018-04-13T06:10:12.506Z,999.39
2018-04-13T06:11:12.529Z,999.39
2018-04-13T06:12:12.539Z,999.37
2018-04-13T06:13:12.553Z,999.36
2018-04-13T06:14:12.573Z,999.36
2018-04-13T06:15:13.083Z,999.38
2018-04-13T06:16:12.603Z,999.37
2018-04-13T06:17:12.623Z,999.38
2018-04-13T06:18:12.664Z,999.37
2018-04-13T06:19:12.651Z,999.38
2018-04-13T06:20:12.674Z,999.41
2018-04-13T06:21:12.686Z,999.43
2018-04-13T06:22:12.702Z,999.46
2018-04-13T06:23:12.718Z,999.52
2018-04-13T06:24:12.738Z,999.54
2018-04-13T06:25:12.746Z,999.56
2018-04-13T06:26:12.763Z,999.62
2018-04-13T06:27:12.782Z,999.67
2018-04-13T06:28:12.797Z,999.69
2018-04-13T06:29:12.811Z,999.72
2018-04-13T06:30:12.870Z,999.77
2018-04-13T06:31:12.851Z,999.79
2018-04-13T06:32:12.864Z,999.81
2018-04-13T06:33:12.880Z,999.83
2018-04-13T06:34:12.893Z,999.83
2018-04-13T06:35:12.913Z,999.83
2018-04-13T06:36:12.929Z,999.83
2018-04-13T06:37:12.996Z,999.92
2018-04-13T06:38:12.973Z,999.98
2018-04-13T06:39:12.975Z,1000.03
2018-04-13T06:40:12.992Z,1000.14
2018-04-13T06:41:13.005Z,1000.26
2018-04-13T06:42:13.399Z,1000.36
2018-04-13T06:43:13.041Z,1000.43
2018-04-13T06:44:13.054Z,1000.43
2018-04-13T06:45:13.071Z,1000.40
2018-04-13T06:46:13.089Z,1000.38
2018-04-13T06:47:13.104Z,1000.26
2018-04-13T06:48:13.120Z,1000.16
2018-04-13T06:49:13.186Z,1000.09
2018-04-13T06:50:13.304Z,1000.00
2018-04-13T06:51:13.272Z,999.96
2018-04-13T06:52:13.181Z,999.95
2018-04-13T06:53:13.208Z,999.93
2018-04-13T06:54:13.214Z,999.92
2018-04-13T06:55:13.229Z,999.90
2018-04-13T06:56:13.246Z,999.88
2018-04-13T06:57:13.262Z,999.82
2018-04-13T06:58:13.278Z,999.81
2018-04-13T06:59:13.354Z,999.77
2018-04-13T07:00:13.312Z,999.78
2018-04-13T07:01:13.350Z,999.79
2018-04-13T07:02:13.341Z,999.79
2018-04-13T07:03:13.363Z,999.79
2018-04-13T07:04:13.376Z,999.80
2018-04-13T07:05:13.392Z,999.83
2018-04-13T07:06:13.415Z,999.84
2018-04-13T07:07:13.429Z,999.86
2018-04-13T07:08:13.437Z,999.86
2018-04-13T07:09:13.485Z,999.90
2018-04-13T07:10:13.491Z,999.90
2018-04-13T07:11:13.491Z,999.96
2018-04-13T07:12:13.505Z,999.99
2018-04-13T07:13:13.521Z,1000.01
2018-04-13T07:14:13.769Z,1000.02
2018-04-13T07:15:13.785Z,1000.05
2018-04-13T07:16:13.691Z,1000.05
2018-04-13T07:17:13.639Z,1000.07
2018-04-13T07:18:13.601Z,1000.08
2018-04-13T07:19:13.632Z,1000.05
2018-04-13T07:20:13.637Z,1000.06
2018-04-13T07:21:13.651Z,1000.02
2018-04-13T07:22:13.675Z,1000.05
2018-04-13T07:23:13.682Z,1000.00
2018-04-13T07:24:13.909Z,999.99
2018-04-13T07:25:13.719Z,1000.01
2018-04-13T07:26:13.754Z,1000.01
2018-04-13T07:27:13.753Z,1000.00
2018-04-13T07:28:13.764Z,1000.02
2018-04-13T07:29:13.782Z,999.97
2018-04-13T07:30:13.808Z,999.97
2018-04-13T07:31:13.817Z,999.95
2018-04-13T07:32:13.833Z,999.91
2018-04-13T07:33:13.850Z,999.90
2018-04-13T07:34:13.868Z,999.81
2018-04-13T07:35:13.882Z,999.86
2018-04-13T07:36:13.920Z,999.84
2018-04-13T07:37:13.928Z,999.87
2018-04-13T07:38:13.947Z,999.83
2018-04-13T07:39:13.945Z,999.86
2018-04-13T07:40:13.961Z,999.89
2018-04-13T07:41:13.985Z,999.89
2018-04-13T07:42:15.101Z,999.90
2018-04-13T07:43:14.027Z,999.87
2018-04-13T07:44:14.054Z,999.88
2018-04-13T07:45:14.045Z,999.87
2018-04-13T07:46:14.065Z,999.87
2018-04-13T07:47:14.086Z,999.88
2018-04-13T07:48:14.103Z,999.87
2018-04-13T07:49:14.110Z,999.87
2018-04-13T07:50:14.293Z,999.90
2018-04-13T07:51:14.142Z,999.87
2018-04-13T07:52:14.158Z,999.83
2018-04-13T07:53:14.179Z,999.86
2018-04-13T07:54:14.190Z,999.84
2018-04-13T07:55:14.208Z,999.89
2018-04-13T07:56:14.231Z,999.86
2018-04-13T07:57:14.310Z,999.87
2018-04-13T07:58:14.252Z,999.88
2018-04-13T07:59:14.280Z,999.93
2018-04-13T08:00:14.294Z,999.90
2018-04-13T08:01:14.565Z,999.93
2018-04-13T08:02:14.321Z,999.95
2018-04-13T08:03:14.344Z,999.95
2018-04-13T08:04:14.350Z,999.96
2018-04-13T08:05:14.371Z,1000.01
2018-04-13T08:06:14.386Z,1000.02
2018-04-13T08:07:14.410Z,1000.01
2018-04-13T08:08:14.417Z,1000.08
2018-04-13T08:09:14.446Z,1000.09
2018-04-13T08:10:14.703Z,1000.08
2018-04-13T08:11:14.476Z,1000.11
2018-04-13T08:12:14.487Z,1000.14
2018-04-13T08:13:14.501Z,1000.13
2018-04-13T08:14:14.516Z,1000.15
2018-04-13T08:15:14.535Z,1000.23
2018-04-13T08:16:14.554Z,1000.21
2018-04-13T08:17:14.563Z,1000.23
2018-04-13T08:18:14.613Z,1000.30
2018-04-13T08:19:14.602Z,1000.32
2018-04-13T08:20:14.614Z,1000.31
2018-04-13T08:21:14.636Z,1000.35
2018-04-13T08:22:14.660Z,1000.31
2018-04-13T08:23:14.664Z,1000.33
2018-04-13T08:24:14.687Z,1000.34
2018-04-13T08:25:14.871Z,1000.35
2018-04-13T08:26:14.715Z,1000.36
2018-04-13T08:27:14.738Z,1000.38
2018-04-13T08:28:14.751Z,1000.41
2018-04-13T08:29:14.819Z,1000.43
2018-04-13T08:30:14.779Z,1000.47
2018-04-13T08:31:14.812Z,1000.41
2018-04-13T08:32:14.818Z,1000.46
2018-04-13T08:33:14.834Z,1000.51
2018-04-13T08:34:14.845Z,1000.48
2018-04-13T08:35:14.876Z,1000.48
2018-04-13T08:36:14.884Z,1000.50
2018-04-13T08:37:14.902Z,1000.43
2018-04-13T08:38:15.062Z,1000.47
2018-04-13T08:39:14.932Z,1000.48
2018-04-13T08:40:14.950Z,1000.48
2018-04-13T08:41:14.965Z,1000.52
2018-04-13T08:42:14.984Z,1000.47
2018-04-13T08:43:15.054Z,1000.58
2018-04-13T08:44:15.043Z,1000.54
2018-04-13T08:45:15.033Z,1000.53
2018-04-13T08:46:15.050Z,1000.59
2018-04-13T08:47:15.067Z,1000.62
2018-04-13T08:48:15.118Z,1000.64
2018-04-13T08:49:15.222Z,1000.62
2018-04-13T08:50:15.179Z,1000.62
2018-04-13T08:51:15.134Z,1000.63
2018-04-13T08:52:15.154Z,1000.60
2018-04-13T08:53:15.168Z,1000.60
2018-04-13T08:54:15.192Z,1000.61
2018-04-13T08:55:15.204Z,1000.61
2018-04-13T08:56:15.223Z,1000.63
2018-04-13T08:57:15.237Z,1000.64
2018-04-13T08:58:15.254Z,1000.61
2018-04-13T08:59:15.271Z,1000.62
2018-04-13T09:00:15.662Z,1000.62
2018-04-13T09:01:15.338Z,1000.60
2018-04-13T09:02:15.322Z,1000.63
2018-04-13T09:03:15.342Z,1000.63
2018-04-13T09:04:15.356Z,1000.67
2018-04-13T09:05:15.372Z,1000.66
2018-04-13T09:06:15.389Z,1000.69
2018-04-13T09:07:15.407Z,1000.75
2018-04-13T09:08:15.424Z,1000.72
2018-04-13T09:09:15.443Z,1000.77
2018-04-13T09:10:15.458Z,1000.81
2018-04-13T09:12:15.494Z,1000.85
2018-04-13T09:13:15.529Z,1000.91
2018-04-13T09:14:15.574Z,1000.89
2018-04-13T09:15:15.547Z,1000.92
2018-04-13T09:16:15.563Z,1000.97
2018-04-13T09:17:15.581Z,1000.96
2018-04-13T09:18:15.596Z,1001.02
2018-04-13T09:19:15.616Z,1001.03
2018-04-13T09:20:15.630Z,1001.07
2018-04-13T09:21:15.647Z,1001.07
2018-04-13T09:22:15.669Z,1001.08
2018-04-13T09:23:15.683Z,1001.07
2018-04-13T09:24:15.702Z,1001.12
2018-04-13T09:25:15.716Z,1001.06
2018-04-13T09:26:15.735Z,1001.11
2018-04-13T09:27:15.756Z,1001.08
2018-04-13T09:28:15.773Z,1001.11
2018-04-13T09:29:15.785Z,1001.10
2018-04-13T09:30:15.804Z,1001.08
2018-04-13T09:31:15.822Z,1001.07
2018-04-13T09:32:15.838Z,1001.03
2018-04-13T09:33:16.307Z,1001.03
2018-04-13T09:34:15.872Z,1001.02
2018-04-13T09:35:15.898Z,1000.96
2018-04-13T09:36:16.738Z,1000.96
2018-04-13T09:37:15.924Z,1000.90
2018-04-13T09:38:15.950Z,1000.94
2018-04-13T09:39:16.162Z,1000.92
2018-04-13T09:40:15.978Z,1000.91
2018-04-13T09:41:15.996Z,1000.91
2018-04-13T09:42:16.014Z,1000.96
2018-04-13T09:43:16.032Z,1000.94
2018-04-13T09:44:16.047Z,1000.94
2018-04-13T09:45:16.064Z,1000.98
2018-04-13T09:46:16.086Z,1001.00
2018-04-13T09:47:16.100Z,1000.99
2018-04-13T09:48:16.117Z,1000.98
2018-04-13T09:49:16.134Z,1000.95
2018-04-13T09:50:16.152Z,1000.99
2018-04-13T09:51:16.170Z,1001.02
2018-04-13T09:52:16.189Z,1001.00
2018-04-13T09:53:16.207Z,1000.99
2018-04-13T09:54:16.221Z,1000.94
2018-04-13T09:55:16.240Z,1000.93
2018-04-13T09:56:16.257Z,1000.93
2018-04-13T09:57:16.503Z,1000.96
2018-04-13T09:58:16.293Z,1000.92
2018-04-13T09:59:16.311Z,1000.94
2018-04-13T10:00:16.328Z,1001.00
2018-04-13T10:01:16.345Z,1000.92
2018-04-13T10:02:16.362Z,1000.95
2018-04-13T10:03:16.442Z,1000.90
2018-04-13T10:04:18.528Z,1000.92
2018-04-13T10:05:16.416Z,1000.90
2018-04-13T10:06:16.436Z,1000.95
2018-04-13T10:07:16.474Z,1000.95
2018-04-13T10:08:16.471Z,1000.99
2018-04-13T10:09:16.497Z,1000.99
2018-04-13T10:10:16.505Z,1001.00
2018-04-13T10:11:16.527Z,1000.99
2018-04-13T10:12:16.549Z,1000.99
2018-04-13T10:13:16.562Z,1000.99
2018-04-13T10:14:16.588Z,1000.99
2018-04-13T10:15:16.596Z,1000.95
2018-04-13T10:16:16.617Z,1000.92
2018-04-13T10:17:16.634Z,1000.97
2018-04-13T10:18:16.650Z,1000.94
2018-04-13T10:19:16.672Z,1000.92
2018-04-13T10:20:16.690Z,1000.97
2018-04-13T10:21:16.708Z,1000.95
2018-04-13T10:22:16.722Z,1000.97
2018-04-13T10:23:16.742Z,1001.04
2018-04-13T10:24:16.757Z,1001.00
2018-04-13T10:25:16.779Z,1001.05
2018-04-13T10:26:16.796Z,1001.04
2018-04-13T10:27:16.816Z,1001.06
2018-04-13T10:28:16.831Z,1001.05
2018-04-13T10:29:16.848Z,1001.06
2018-04-13T10:30:16.869Z,1001.07
2018-04-13T10:31:16.882Z,1001.07
2018-04-13T10:32:16.904Z,1001.09
2018-04-13T10:33:16.921Z,1001.05
2018-04-13T10:34:16.944Z,1001.12
2018-04-13T10:35:16.955Z,1001.14
2018-04-13T10:36:16.975Z,1001.13
2018-04-13T10:37:16.993Z,1001.16
2018-04-13T10:38:17.011Z,1001.16
2018-04-13T10:39:17.030Z,1001.16
2018-04-13T10:40:17.053Z,1001.15
2018-04-13T10:41:17.061Z,1001.19
2018-04-13T10:42:17.080Z,1001.17
2018-04-13T10:43:17.117Z,1001.14
2018-04-13T10:44:17.666Z,1001.18
2018-04-13T10:45:17.134Z,1001.19
2018-04-13T10:46:17.152Z,1001.22
2018-04-13T10:47:17.171Z,1001.19
2018-04-13T10:48:17.190Z,1001.21
2018-04-13T10:49:17.512Z,1001.25
2018-04-13T10:50:17.229Z,1001.19
2018-04-13T10:51:17.244Z,1001.23
2018-04-13T10:52:17.260Z,1001.23
2018-04-13T10:53:17.282Z,1001.21
2018-04-13T10:54:17.298Z,1001.23
2018-04-13T10:55:17.314Z,1001.26
2018-04-13T10:56:17.338Z,1001.27
2018-04-13T10:57:17.453Z,1001.22
2018-04-13T10:58:17.372Z,1001.30
2018-04-13T10:59:17.389Z,1001.30
2018-04-13T11:00:17.406Z,1001.31
2018-04-13T11:01:17.430Z,1001.32
2018-04-13T11:02:17.441Z,1001.36
2018-04-13T11:03:17.460Z,1001.33
2018-04-13T11:04:17.487Z,1001.33
2018-04-13T11:05:17.501Z,1001.35
2018-04-13T11:06:17.519Z,1001.34
2018-04-13T11:07:17.541Z,1001.40
2018-04-13T11:08:17.831Z,1001.30
2018-04-13T11:09:17.650Z,1001.41
2018-04-13T11:10:18.211Z,1001.41
2018-04-13T11:11:17.978Z,1001.32
2018-04-13T11:12:17.621Z,1001.41
2018-04-13T11:13:17.639Z,1001.45
2018-04-13T11:14:17.662Z,1001.42
2018-04-13T11:15:17.684Z,1001.42
2018-04-13T11:16:17.843Z,1001.49
2018-04-13T11:17:18.150Z,1001.46
2018-04-13T11:19:17.741Z,1001.45
2018-04-13T11:20:17.769Z,1001.47
2018-04-13T11:21:18.133Z,1001.37
2018-04-13T11:22:17.793Z,1001.49
2018-04-13T11:23:17.913Z,1001.46
2018-04-13T11:24:17.837Z,1001.45
2018-04-13T11:25:17.846Z,1001.52
2018-04-13T11:26:17.867Z,1001.52
2018-04-13T11:27:17.882Z,1001.53
2018-04-13T11:28:17.901Z,1001.54
2018-04-13T11:29:17.920Z,1001.52
2018-04-13T11:30:17.937Z,1001.55
2018-04-13T11:31:17.960Z,1001.58
2018-04-13T11:32:17.972Z,1001.56
2018-04-13T11:33:17.996Z,1001.55
2018-04-13T11:34:18.007Z,1001.55
2018-04-13T11:35:18.031Z,1001.52
2018-04-13T11:36:18.046Z,1001.53
2018-04-13T11:37:18.071Z,1001.57
2018-04-13T11:38:18.094Z,1001.58
2018-04-13T11:39:18.097Z,1001.55
2018-04-13T11:40:18.238Z,1001.50
2018-04-13T11:41:18.253Z,1001.53
2018-04-13T11:42:18.352Z,1001.51
2018-04-13T11:43:18.169Z,1001.49
2018-04-13T11:44:18.187Z,1001.52
2018-04-13T11:45:18.203Z,1001.49
2018-04-13T11:46:18.226Z,1001.52
2018-04-13T11:47:18.241Z,1001.53
2018-04-13T11:48:18.261Z,1001.51
2018-04-13T11:49:18.280Z,1001.53
2018-04-13T11:50:18.303Z,1001.56
2018-04-13T11:51:18.313Z,1001.56
2018-04-13T11:52:18.337Z,1001.57
2018-04-13T11:53:18.349Z,1001.62
2018-04-13T11:54:18.369Z,1001.62
2018-04-13T11:55:18.384Z,1001.61
2018-04-13T11:56:18.402Z,1001.63
2018-04-13T11:57:18.419Z,1001.65
2018-04-13T11:58:18.438Z,1001.65
2018-04-13T11:59:18.459Z,1001.73
2018-04-13T12:00:18.472Z,1001.80
2018-04-13T12:01:18.490Z,1001.86
2018-04-13T12:02:18.510Z,1001.97
2018-04-13T12:03:18.525Z,1001.97
2018-04-13T12:04:18.544Z,1001.93
2018-04-13T12:05:18.561Z,1001.98
2018-04-13T12:06:18.584Z,1001.97
2018-04-13T12:07:18.596Z,1002.00
2018-04-13T12:08:18.615Z,1001.96
2018-04-13T12:09:18.635Z,1001.90
2018-04-13T12:10:18.653Z,1001.91
2018-04-13T12:11:18.669Z,1001.94
2018-04-13T12:12:18.683Z,1001.88
2018-04-13T12:13:18.702Z,1001.90
2018-04-13T12:14:18.723Z,1001.86
2018-04-13T12:15:18.750Z,1001.86
2018-04-13T12:16:18.758Z,1001.91
2018-04-13T12:17:18.770Z,1001.96
2018-04-13T12:18:18.788Z,1001.98
2018-04-13T12:19:18.805Z,1002.00
2018-04-13T12:20:18.823Z,1002.02
2018-04-13T12:21:18.839Z,1002.04